Time;durP1;ratioP1;P1;durP2;ratioP2;P2;SDS_P1;SDS_P2;PMS_P1;PMS_P2;Temp;Humidity;BMP_temperature;BMP_pressure;BME280_temperature;BME280_humidity;BME280_pressure;Samples;Min_cycle;Max_cycle;Signal;HPM_P1;HPM_P2
2024/01/22 00:01:09;;;;;;;27.50;15.20;;;;;;;5.28;73.11;102520.02;108139;1280;22003;-59
2024/01/22 00:03:34;;;;;;;25.10;15.00;;;;;;;5.31;73.27;102520.46;108190;1283;21974;-58
2024/01/22 00:06:00;;;;;;;27.10;14.90;;;;;;;5.32;73.31;102523.29;108126;1286;21998;-60
2024/01/22 00:08:26;;;;;;;26.60;14.40;;;;;;;5.32;73.57;102525.58;108107;1287;21994;-59
2024/01/22 00:10:51;;;;;;;25.60;15.30;;;;;;;5.30;73.83;102529.33;108109;1287;22053;-59
2024/01/22 00:13:17;;;;;;;28.80;16.50;;;;;;;5.29;73.87;102531.02;108235;1280;22044;-59
2024/01/22 00:15:42;;;;;;;29.70;17.00;;;;;;;5.28;74.35;102531.15;108192;1287;21983;-59
2024/01/22 00:18:08;;;;;;;29.50;17.00;;;;;;;5.30;74.35;102534.36;108118;1287;21991;-58
2024/01/22 00:20:33;;;;;;;31.10;17.30;;;;;;;5.31;74.36;102540.68;108122;1283;22003;-59
2024/01/22 00:22:59;;;;;;;29.70;18.50;;;;;;;5.33;74.43;102544.92;108149;1287;22466;-61
2024/01/22 00:25:24;;;;;;;28.60;18.10;;;;;;;5.35;74.63;102546.40;108123;1280;21986;-60
2024/01/22 00:27:50;;;;;;;32.20;18.90;;;;;;;5.38;74.21;102548.77;108189;1287;21998;-60
2024/01/22 00:30:16;;;;;;;36.30;19.10;;;;;;;5.40;74.43;102547.83;108174;1287;21977;-59
2024/01/22 00:32:41;;;;;;;34.20;20.00;;;;;;;5.40;74.35;102549.08;108214;1280;21986;-60
2024/01/22 00:35:07;;;;;;;33.10;18.60;;;;;;;5.39;74.40;102542.41;108133;1287;22024;-59
2024/01/22 00:37:33;;;;;;;31.80;17.80;;;;;;;5.36;74.46;102545.58;108168;1287;21994;-58
2024/01/22 00:39:58;;;;;;;34.30;19.40;;;;;;;5.34;74.63;102549.52;108118;1287;21990;-59
2024/01/22 00:42:24;;;;;;;32.10;19.50;;;;;;;5.33;74.55;102555.41;108128;1281;22000;-61
2024/01/22 00:44:50;;;;;;;32.80;19.00;;;;;;;5.34;74.34;102558.58;108149;1276;22027;-59
2024/01/22 00:47:15;;;;;;;31.90;19.70;;;;;;;5.37;74.60;102556.42;108210;1283;21990;-60
2024/01/22 00:49:42;;;;;;;33.00;19.30;;;;;;;5.40;74.62;102550.80;107490;1277;1003442;-58
2024/01/22 00:52:07;;;;;;;34.30;20.10;;;;;;;5.38;74.54;102547.59;108179;1280;22003;-59
2024/01/22 00:54:33;;;;;;;31.30;18.90;;;;;;;5.36;74.21;102552.92;108211;1287;21987;-60
2024/01/22 00:56:58;;;;;;;35.00;19.00;;;;;;;5.35;74.28;102559.10;108129;1283;21983;-59
2024/01/22 00:59:24;;;;;;;29.20;18.20;;;;;;;5.34;74.57;102561.88;108161;1287;22029;-60
2024/01/22 01:01:50;;;;;;;32.60;19.30;;;;;;;5.34;74.63;102563.61;108150;1287;21991;-60
2024/01/22 01:04:15;;;;;;;30.80;19.40;;;;;;;5.33;74.63;102563.89;108113;1286;21997;-58
2024/01/22 01:06:41;;;;;;;31.20;19.00;;;;;;;5.31;74.61;102564.34;108120;1277;21981;-60
2024/01/22 01:09:07;;;;;;;31.10;18.70;;;;;;;5.28;74.63;102564.75;108160;1287;21989;-59
2024/01/22 01:11:32;;;;;;;32.10;19.30;;;;;;;5.27;74.37;102562.10;108193;1277;21995;-60
2024/01/22 01:13:58;;;;;;;31.20;18.30;;;;;;;5.25;74.36;102561.81;108103;1280;21996;-60
2024/01/22 01:16:23;;;;;;;26.90;16.40;;;;;;;5.21;74.33;102561.66;108246;1287;22047;-59
2024/01/22 01:18:49;;;;;;;32.80;19.00;;;;;;;5.19;74.32;102563.48;108119;1283;21999;-60
2024/01/22 01:21:16;;;;;;;31.30;18.10;;;;;;;5.18;74.10;102566.55;108235;1277;22009;-60
2024/01/22 01:23:42;;;;;;;33.80;19.00;;;;;;;5.16;73.86;102565.06;108156;1287;22017;-61
2024/01/22 01:26:08;;;;;;;32.10;19.10;;;;;;;5.16;74.13;102566.97;108173;1285;21989;-60
2024/01/22 01:28:33;;;;;;;34.80;19.50;;;;;;;5.14;74.28;102564.98;108158;1286;22123;-59
2024/01/22 01:30:59;;;;;;;35.70;20.60;;;;;;;5.12;73.94;102566.95;108089;1287;21986;-61
2024/01/22 01:33:24;;;;;;;31.10;19.10;;;;;;;5.11;74.17;102572.51;108102;1283;21998;-59
2024/01/22 01:35:50;;;;;;;32.80;18.10;;;;;;;5.11;74.33;102572.65;108122;1287;21987;-60
2024/01/22 01:38:15;;;;;;;27.50;17.00;;;;;;;5.11;74.26;102571.30;108103;1274;21987;-59
2024/01/22 01:40:42;;;;;;;26.90;16.30;;;;;;;5.09;73.89;102571.39;108180;1283;22028;-59
2024/01/22 01:43:07;;;;;;;27.10;16.40;;;;;;;5.06;73.73;102569.35;108213;1287;21989;-61
2024/01/22 01:45:33;;;;;;;25.90;16.00;;;;;;;5.05;74.01;102570.50;108195;1287;21986;-58
2024/01/22 01:47:58;;;;;;;26.30;16.70;;;;;;;5.04;73.91;102575.37;108300;1286;21999;-58
2024/01/22 01:50:24;;;;;;;25.70;15.90;;;;;;;5.05;73.83;102579.93;108061;1286;22461;-60
2024/01/22 01:52:49;;;;;;;22.60;13.80;;;;;;;5.07;74.17;102576.16;108124;1286;21984;-58
2024/01/22 01:55:15;;;;;;;23.30;14.20;;;;;;;5.08;74.04;102577.41;107905;1286;21986;-58
2024/01/22 01:57:40;;;;;;;25.30;15.40;;;;;;;5.09;73.91;102579.19;108072;1286;22000;-59
2024/01/22 02:00:09;;;;;;;24.50;14.00;;;;;;;5.11;73.69;102581.02;107866;1286;21980;-60
2024/01/22 02:02:40;;;;;;;22.70;13.80;;;;;;;5.12;74.06;102581.60;108172;1277;21988;-60
2024/01/22 02:05:06;;;;;;;24.40;15.70;;;;;;;5.15;74.36;102577.75;108065;1286;22021;-60
2024/01/22 02:07:32;;;;;;;26.40;15.00;;;;;;;5.19;74.49;102577.77;108066;1278;22043;-59
2024/01/22 02:09:58;;;;;;;23.80;14.40;;;;;;;5.23;74.65;102577.58;107405;1286;1002472;-60
2024/01/22 02:12:24;;;;;;;25.20;14.30;;;;;;;5.26;74.69;102576.48;108080;1277;21989;-60
2024/01/22 02:14:49;;;;;;;25.80;15.20;;;;;;;5.25;74.55;102571.41;107346;1286;1002323;-59
2024/01/22 02:17:15;;;;;;;28.10;16.50;;;;;;;5.26;74.68;102567.94;107348;1286;1002707;-60
2024/01/22 02:19:40;;;;;;;30.40;15.80;;;;;;;5.26;74.23;102574.23;108159;1286;22103;-59
2024/01/22 02:22:06;;;;;;;26.10;15.60;;;;;;;5.23;73.66;102577.73;108165;1276;21987;-60
2024/01/22 02:24:31;;;;;;;21.60;12.90;;;;;;;5.19;73.64;102575.31;108134;1280;21995;-59
2024/01/22 02:26:57;;;;;;;26.20;15.10;;;;;;;5.22;73.92;102571.59;108116;1286;22142;-60
2024/01/22 02:29:22;;;;;;;24.70;14.60;;;;;;;5.22;73.77;102565.84;108121;1280;22003;-59
2024/01/22 02:31:49;;;;;;;28.90;15.40;;;;;;;5.20;73.82;102561.77;108128;1280;22008;-58
2024/01/22 02:34:15;;;;;;;25.60;15.30;;;;;;;5.17;73.37;102559.20;108113;1281;21984;-59
2024/01/22 02:36:41;;;;;;;22.20;13.80;;;;;;;5.13;73.46;102560.76;108181;1286;22026;-61
2024/01/22 02:39:07;;;;;;;26.90;16.20;;;;;;;5.11;73.35;102561.02;108136;1287;21998;-60
2024/01/22 02:41:32;;;;;;;25.00;15.30;;;;;;;5.07;73.02;102559.65;107918;1283;21992;-60
2024/01/22 02:43:58;;;;;;;23.00;14.30;;;;;;;5.05;73.04;102561.98;108067;1288;21997;-60
2024/01/22 02:46:24;;;;;;;25.40;15.10;;;;;;;5.03;72.99;102562.77;108101;1288;22030;-61
2024/01/22 02:48:51;;;;;;;25.10;15.00;;;;;;;5.00;72.58;102571.14;108093;1283;21990;-60
2024/01/22 02:51:16;;;;;;;24.80;15.00;;;;;;;4.91;72.30;102577.88;108146;1288;22040;-61
2024/01/22 02:53:42;;;;;;;22.70;14.70;;;;;;;4.84;72.18;102584.71;108134;1288;21997;-60
2024/01/22 02:56:07;;;;;;;21.90;14.60;;;;;;;4.80;72.51;102586.72;107337;1288;1004063;-59
2024/01/22 02:58:33;;;;;;;23.70;14.30;;;;;;;4.80;72.63;102584.29;107376;1288;1002397;-59
2024/01/22 03:00:59;;;;;;;24.60;14.00;;;;;;;4.84;73.16;102581.55;107353;1288;1002532;-60
2024/01/22 03:03:24;;;;;;;23.30;14.80;;;;;;;4.90;73.66;102582.85;108079;1284;22465;-59
2024/01/22 03:05:50;;;;;;;23.00;14.60;;;;;;;4.95;73.86;102582.74;108090;1283;21985;-60
2024/01/22 03:08:15;;;;;;;24.10;14.50;;;;;;;5.00;73.98;102586.61;108106;1287;21981;-59
2024/01/22 03:10:41;;;;;;;24.30;14.30;;;;;;;5.03;73.84;102584.86;108137;1277;21995;-58
2024/01/22 03:13:06;;;;;;;26.30;15.50;;;;;;;5.05;74.00;102582.85;108117;1276;21991;-60
2024/01/22 03:15:32;;;;;;;25.10;14.80;;;;;;;5.06;73.95;102582.40;107403;1283;1002635;-58
2024/01/22 03:17:58;;;;;;;25.80;15.50;;;;;;;5.05;73.46;102581.64;108144;1287;22002;-60
2024/01/22 03:20:23;;;;;;;26.90;15.90;;;;;;;5.01;73.17;102588.23;108087;1288;22035;-60
2024/01/22 03:22:49;;;;;;;24.10;15.00;;;;;;;4.95;72.82;102591.29;108160;1283;22057;-60
2024/01/22 03:25:15;;;;;;;26.00;15.20;;;;;;;4.90;72.77;102591.75;108131;1288;21990;-58
2024/01/22 03:27:41;;;;;;;22.90;14.10;;;;;;;4.88;72.69;102589.39;108101;1280;22000;-59
2024/01/22 03:30:07;;;;;;;23.90;14.10;;;;;;;4.89;73.26;102592.03;108115;1283;21989;-61
2024/01/22 03:32:32;;;;;;;23.70;13.70;;;;;;;4.92;73.66;102590.27;108137;1283;23675;-58
2024/01/22 03:34:58;;;;;;;23.80;13.40;;;;;;;4.96;74.02;102589.56;108126;1283;21999;-59
2024/01/22 03:37:24;;;;;;;23.40;14.00;;;;;;;5.00;74.18;102595.50;108098;1287;22001;-59
2024/01/22 03:39:49;;;;;;;24.20;15.00;;;;;;;5.01;73.56;102600.11;108067;1283;21989;-59
2024/01/22 03:42:15;;;;;;;25.80;14.60;;;;;;;4.96;72.82;102599.85;108098;1277;22014;-60
2024/01/22 03:44:41;;;;;;;23.30;14.50;;;;;;;4.90;72.62;102601.13;108109;1283;22043;-59
2024/01/22 03:47:07;;;;;;;24.10;14.90;;;;;;;4.85;72.39;102605.41;108095;1277;22051;-58
2024/01/22 03:49:32;;;;;;;26.30;14.90;;;;;;;4.80;72.25;102609.38;108090;1277;21998;-60
2024/01/22 03:51:58;;;;;;;23.80;14.00;;;;;;;4.75;72.37;102608.29;108093;1283;21996;-60
2024/01/22 03:54:23;;;;;;;24.80;14.70;;;;;;;4.72;72.23;102607.09;108112;1288;22001;-61
2024/01/22 03:56:49;;;;;;;23.10;14.70;;;;;;;4.70;72.40;102605.59;108107;1283;22042;-58
2024/01/22 03:59:14;;;;;;;21.70;12.90;;;;;;;4.67;72.31;102605.25;108099;1277;22000;-59
2024/01/22 04:01:40;;;;;;;25.60;13.90;;;;;;;4.64;72.62;102607.40;108084;1288;22451;-58
2024/01/22 04:04:05;;;;;;;24.80;13.70;;;;;;;4.63;72.60;102609.60;108086;1288;21987;-59
2024/01/22 04:06:31;;;;;;;25.50;15.00;;;;;;;4.61;72.65;102612.12;108129;1286;21985;-61
2024/01/22 04:08:57;;;;;;;26.50;15.20;;;;;;;4.58;72.53;102615.13;108078;1283;21996;-58
2024/01/22 04:11:22;;;;;;;25.40;14.60;;;;;;;4.54;72.49;102621.02;108106;1284;22095;-58
2024/01/22 04:13:48;;;;;;;27.90;14.90;;;;;;;4.52;72.47;102623.16;108089;1283;21990;-58
2024/01/22 04:16:13;;;;;;;26.00;14.90;;;;;;;4.50;72.60;102625.85;108101;1277;21977;-58
2024/01/22 04:18:42;;;;;;;27.30;13.80;;;;;;;4.50;72.58;102631.21;108054;1282;21991;-58
2024/01/22 04:21:09;;;;;;;25.80;13.60;;;;;;;4.54;73.10;102634.92;107350;1288;1002302;-60
2024/01/22 04:23:35;;;;;;;25.00;14.50;;;;;;;4.61;73.70;102638.56;108063;1281;22036;-58
2024/01/22 04:26:01;;;;;;;24.70;14.10;;;;;;;4.68;74.26;102641.98;108083;1278;21992;-59
2024/01/22 04:28:27;;;;;;;27.30;14.90;;;;;;;4.73;74.27;102642.95;108136;1283;22053;-57
2024/01/22 04:30:53;;;;;;;24.80;14.20;;;;;;;4.78;74.15;102645.10;108164;1288;22053;-60
2024/01/22 04:33:18;;;;;;;20.90;13.30;;;;;;;4.82;74.11;102648.09;107438;1277;1003210;-60
2024/01/22 04:35:44;;;;;;;25.20;13.80;;;;;;;4.88;74.51;102655.31;107329;1283;1002369;-59
2024/01/22 04:38:09;;;;;;;26.80;13.40;;;;;;;4.94;74.46;102658.02;108099;1286;21993;-60
2024/01/22 04:40:35;;;;;;;23.10;13.10;;;;;;;4.96;73.99;102654.65;108058;1274;21990;-58
2024/01/22 04:43:01;;;;;;;25.80;13.90;;;;;;;4.96;73.59;102651.84;108081;1284;23518;-58
2024/01/22 04:45:27;;;;;;;22.80;13.20;;;;;;;4.97;73.36;102655.54;108163;1284;21992;-58
2024/01/22 04:47:52;;;;;;;25.80;14.40;;;;;;;4.94;73.10;102660.66;108052;1277;22005;-59
2024/01/22 04:50:18;;;;;;;21.80;13.70;;;;;;;4.92;72.99;102656.90;108027;1283;22063;-58
2024/01/22 04:52:44;;;;;;;24.70;14.00;;;;;;;4.93;73.39;102655.38;107323;1286;1002809;-59
2024/01/22 04:55:10;;;;;;;26.20;14.60;;;;;;;4.95;73.60;102649.19;108064;1284;22797;-59
2024/01/22 04:57:35;;;;;;;23.60;14.70;;;;;;;4.95;73.33;102647.46;108110;1280;22005;-59
2024/01/22 05:00:02;;;;;;;27.20;15.40;;;;;;;4.92;72.92;102644.89;108147;1277;21987;-60
2024/01/22 05:02:28;;;;;;;26.60;14.40;;;;;;;4.88;72.77;102647.16;108328;1280;23786;-58
2024/01/22 05:04:56;;;;;;;24.00;14.10;;;;;;;4.87;72.89;102650.58;108262;1283;21997;-60
2024/01/22 05:07:24;;;;;;;21.30;12.90;;;;;;;4.88;72.93;102650.80;108281;1286;22039;-60
2024/01/22 05:09:49;;;;;;;22.60;13.30;;;;;;;4.88;72.90;102650.80;108152;1286;21997;-58
2024/01/22 05:12:15;;;;;;;26.50;14.30;;;;;;;4.91;73.36;102653.19;108185;1280;21988;-61
2024/01/22 05:14:41;;;;;;;24.10;14.20;;;;;;;4.92;73.45;102655.86;108226;1277;22044;-60
2024/01/22 05:17:07;;;;;;;22.70;14.60;;;;;;;4.88;72.85;102654.98;107404;1281;1002275;-61
2024/01/22 05:19:33;;;;;;;25.20;14.40;;;;;;;4.85;72.89;102656.04;108132;1284;22003;-60
2024/01/22 05:21:58;;;;;;;27.90;14.90;;;;;;;4.81;72.81;102653.81;108206;1281;22032;-60
2024/01/22 05:24:24;;;;;;;25.20;14.70;;;;;;;4.77;73.37;102655.48;108180;1277;22090;-59
2024/01/22 05:26:49;;;;;;;27.10;14.30;;;;;;;4.75;74.09;102657.85;108161;1280;21991;-58
2024/01/22 05:29:15;;;;;;;24.70;14.60;;;;;;;4.79;74.78;102656.29;108224;1280;21986;-60
2024/01/22 05:31:40;;;;;;;24.40;14.30;;;;;;;4.91;76.23;102658.41;108094;1286;21988;-60
2024/01/22 05:34:06;;;;;;;27.00;14.90;;;;;;;5.00;76.19;102660.08;108129;1286;22076;-58
2024/01/22 05:36:32;;;;;;;28.20;15.80;;;;;;;5.05;75.58;102660.15;108127;1280;22012;-59
2024/01/22 05:38:57;;;;;;;26.20;15.30;;;;;;;5.09;75.33;102657.50;108061;1284;21997;-59
2024/01/22 05:41:23;;;;;;;27.00;15.00;;;;;;;5.05;74.31;102658.59;107364;1288;1002383;-60
2024/01/22 05:43:48;;;;;;;28.80;16.00;;;;;;;5.04;74.63;102660.23;107412;1283;1002374;-60
2024/01/22 05:46:14;;;;;;;24.30;14.00;;;;;;;5.03;74.53;102662.98;107389;1288;1003095;-60
2024/01/22 05:48:39;;;;;;;27.60;14.40;;;;;;;5.04;74.39;102665.13;107354;1283;1006363;-61
2024/01/22 05:51:05;;;;;;;24.90;13.90;;;;;;;5.05;74.80;102665.71;108121;1283;22008;-61
2024/01/22 05:53:30;;;;;;;27.20;14.50;;;;;;;5.08;75.12;102670.71;108123;1283;21999;-61
2024/01/22 05:55:56;;;;;;;29.10;14.00;;;;;;;5.13;75.71;102671.64;108108;1280;21989;-60
2024/01/22 05:58:22;;;;;;;28.70;14.60;;;;;;;5.20;76.30;102676.30;108088;1288;22035;-59
2024/01/22 06:00:48;;;;;;;25.80;14.40;;;;;;;5.28;76.82;102676.31;108146;1288;22012;-62
2024/01/22 06:03:14;;;;;;;26.40;14.30;;;;;;;5.35;76.86;102676.47;108100;1277;21988;-61
2024/01/22 06:05:39;;;;;;;30.00;15.40;;;;;;;5.42;76.95;102684.29;107339;1288;1002931;-59
2024/01/22 06:08:05;;;;;;;29.40;15.10;;;;;;;5.48;77.31;102687.52;107218;1288;1003144;-59
2024/01/22 06:10:31;;;;;;;30.10;14.40;;;;;;;5.52;77.07;102690.65;108121;1277;21990;-61
2024/01/22 06:12:56;;;;;;;23.90;13.50;;;;;;;5.55;76.94;102689.19;108114;1284;21990;-61
2024/01/22 06:15:22;;;;;;;33.10;15.20;;;;;;;5.58;77.13;102683.77;108120;1288;21983;-58
2024/01/22 06:17:49;;;;;;;27.00;14.80;;;;;;;5.61;76.95;102683.56;108107;1277;21997;-60
2024/01/22 06:20:15;;;;;;;28.70;14.10;;;;;;;5.62;76.60;102687.27;108029;1288;21995;-59
2024/01/22 06:22:41;;;;;;;26.60;14.20;;;;;;;5.63;76.41;102683.12;108112;1288;21990;-60
2024/01/22 06:25:07;;;;;;;30.20;14.20;;;;;;;5.61;76.42;102681.67;108116;1283;21992;-59
2024/01/22 06:27:33;;;;;;;30.70;16.00;;;;;;;5.61;76.14;102684.63;108077;1288;21998;-60
2024/01/22 06:29:59;;;;;;;28.60;16.80;;;;;;;5.61;75.95;102687.92;108160;1281;22003;-59
2024/01/22 06:32:26;;;;;;;30.50;15.70;;;;;;;5.61;75.79;102690.00;107892;1287;23036;-61
2024/01/22 06:34:52;;;;;;;32.70;17.00;;;;;;;5.60;75.95;102680.58;108153;1284;21990;-59
2024/01/22 06:37:18;;;;;;;29.30;15.50;;;;;;;5.60;75.82;102679.85;108116;1277;21998;-61
2024/01/22 06:39:44;;;;;;;30.00;16.40;;;;;;;5.60;75.91;102683.35;107978;1286;23088;-60
2024/01/22 06:42:09;;;;;;;34.20;16.70;;;;;;;5.60;75.95;102686.50;108291;1284;21979;-59
2024/01/22 06:44:35;;;;;;;29.60;15.10;;;;;;;5.61;76.13;102685.33;108231;1286;23670;-61
2024/01/22 06:47:00;;;;;;;31.50;15.80;;;;;;;5.63;76.36;102682.98;108210;1286;21987;-61
2024/01/22 06:49:26;;;;;;;27.20;15.50;;;;;;;5.65;76.49;102686.73;108099;1286;21987;-62
2024/01/22 06:51:52;;;;;;;30.30;15.70;;;;;;;5.68;76.47;102688.07;108166;1284;21980;-61
2024/01/22 06:54:19;;;;;;;29.90;16.60;;;;;;;5.71;76.35;102688.52;108338;1284;21983;-58
2024/01/22 06:56:45;;;;;;;30.30;16.80;;;;;;;5.72;76.51;102691.57;107409;1281;1002458;-59
2024/01/22 06:59:10;;;;;;;32.20;16.90;;;;;;;5.74;76.47;102693.70;108076;1286;21990;-61
2024/01/22 07:01:36;;;;;;;34.90;16.40;;;;;;;5.75;76.53;102691.50;108097;1283;21993;-59
2024/01/22 07:04:03;;;;;;;32.50;16.40;;;;;;;5.76;76.55;102692.43;108213;1286;21996;-60
2024/01/22 07:06:29;;;;;;;31.20;16.00;;;;;;;5.77;76.39;102694.75;108220;1286;21984;-59
2024/01/22 07:08:55;;;;;;;29.70;16.40;;;;;;;5.79;76.32;102698.48;108204;1281;22020;-59
2024/01/22 07:11:20;;;;;;;30.30;15.60;;;;;;;5.81;76.31;102700.48;108331;1284;21989;-58
2024/01/22 07:13:46;;;;;;;30.30;16.50;;;;;;;5.83;76.68;102704.24;108195;1277;22458;-59
2024/01/22 07:16:12;;;;;;;1465.20;788.40;;;;;;;5.86;76.76;102707.47;108094;1286;22016;-60
2024/01/22 07:18:37;;;;;;;1035.70;682.70;;;;;;;5.96;79.27;102700.98;108107;1277;22000;-60
2024/01/22 07:21:03;;;;;;;240.50;138.20;;;;;;;6.29;83.43;102702.75;108092;1277;21994;-60
2024/01/22 07:23:29;;;;;;;184.30;91.50;;;;;;;6.49;82.72;102699.94;108159;1276;21993;-58
2024/01/22 07:25:55;;;;;;;176.30;79.20;;;;;;;6.56;81.48;102705.27;108138;1284;21993;-60
2024/01/22 07:28:21;;;;;;;149.60;63.30;;;;;;;6.62;81.32;102712.16;108121;1286;21990;-58
2024/01/22 07:30:46;;;;;;;123.90;52.00;;;;;;;6.68;81.38;102710.48;108215;1280;21987;-60
2024/01/22 07:33:12;;;;;;;358.30;106.20;;;;;;;6.76;81.95;102714.48;108182;1286;22002;-58
2024/01/22 07:35:37;;;;;;;174.80;55.10;;;;;;;6.83;82.30;102720.73;108219;1275;21988;-59
2024/01/22 07:38:05;;;;;;;112.30;41.80;;;;;;;6.90;81.91;102727.42;108042;1287;21999;-61
2024/01/22 07:40:31;;;;;;;64.60;28.30;;;;;;;6.95;81.45;102726.95;108124;1288;22028;-60
2024/01/22 07:42:56;;;;;;;58.60;25.10;;;;;;;6.94;80.26;102724.98;108083;1277;22060;-61
2024/01/22 07:45:22;;;;;;;47.60;22.30;;;;;;;6.91;79.40;102725.38;107937;1281;288711;-59
2024/01/22 07:47:48;;;;;;;70.60;30.80;;;;;;;6.84;78.58;102720.92;108088;1283;22007;-59
2024/01/22 07:50:14;;;;;;;62.70;25.30;;;;;;;6.79;78.50;102714.58;108067;1277;21992;-60
2024/01/22 07:52:41;;;;;;;55.00;26.60;;;;;;;6.76;78.72;102721.61;108089;1282;21992;-60
2024/01/22 07:55:07;;;;;;;50.10;21.30;;;;;;;6.73;78.43;102722.73;108140;1284;21988;-59
2024/01/22 07:57:33;;;;;;;41.20;20.40;;;;;;;6.69;78.19;102721.71;108150;1287;22035;-59
2024/01/22 07:59:59;;;;;;;40.40;19.40;;;;;;;6.68;78.33;102721.64;108132;1288;22032;-59
2024/01/22 08:02:24;;;;;;;35.70;18.20;;;;;;;6.66;77.64;102725.75;108078;1287;21987;-59
2024/01/22 08:04:50;;;;;;;33.60;18.90;;;;;;;6.64;77.80;102722.54;108066;1280;21998;-59
2024/01/22 08:07:19;;;;;;;33.70;18.60;;;;;;;6.63;77.54;102719.89;108070;1287;21994;-61
2024/01/22 08:09:45;;;;;;;38.00;20.50;;;;;;;6.63;77.51;102722.15;108165;1288;21992;-59
2024/01/22 08:12:11;;;;;;;36.80;18.10;;;;;;;6.62;77.85;102724.39;108147;1288;23059;-61
2024/01/22 08:14:37;;;;;;;33.90;18.80;;;;;;;6.61;77.68;102725.75;108124;1288;22007;-58
2024/01/22 08:17:02;;;;;;;34.40;18.40;;;;;;;6.62;77.83;102730.98;108103;1283;21993;-58
2024/01/22 08:19:28;;;;;;;33.40;17.20;;;;;;;6.63;77.63;102733.30;107904;1280;21993;-58
2024/01/22 08:21:54;;;;;;;34.30;17.20;;;;;;;6.65;77.85;102730.23;108077;1283;22001;-60
2024/01/22 08:24:21;;;;;;;33.20;17.40;;;;;;;6.64;77.97;102729.88;108130;1286;21992;-58
2024/01/22 08:26:48;;;;;;;34.00;16.50;;;;;;;6.67;78.25;102732.61;108148;1277;22001;-61
2024/01/22 08:29:14;;;;;;;38.10;18.80;;;;;;;6.71;78.22;102731.20;108127;1288;22008;-60
2024/01/22 08:31:40;;;;;;;31.20;17.60;;;;;;;6.76;78.22;102732.06;108102;1288;21991;-62
2024/01/22 08:34:05;;;;;;;33.10;18.90;;;;;;;6.79;78.12;102731.16;108081;1284;21993;-59
2024/01/22 08:36:31;;;;;;;33.70;17.80;;;;;;;6.80;77.95;102728.61;108101;1288;22001;-61
2024/01/22 08:38:56;;;;;;;32.20;17.10;;;;;;;6.82;77.85;102722.93;108070;1287;22028;-58
2024/01/22 08:41:26;;;;;;;33.90;17.70;;;;;;;6.84;78.01;102717.08;108121;1287;22028;-59
2024/01/22 08:43:55;;;;;;;32.90;17.30;;;;;;;6.88;78.12;102710.05;108137;1287;22009;-59
2024/01/22 08:46:21;;;;;;;32.00;17.20;;;;;;;6.92;78.25;102702.03;108252;1287;23612;-60
2024/01/22 08:48:46;;;;;;;37.50;18.00;;;;;;;6.96;78.45;102698.00;108249;1287;21988;-61
2024/01/22 08:51:14;;;;;;;32.20;16.60;;;;;;;7.01;78.53;102695.05;108040;1287;22064;-62
2024/01/22 08:53:40;;;;;;;29.80;16.30;;;;;;;7.07;78.34;102697.35;108254;1287;21990;-59
2024/01/22 08:56:06;;;;;;;38.20;18.00;;;;;;;7.10;78.53;102704.33;108144;1279;21985;-63
2024/01/22 08:58:31;;;;;;;39.00;18.50;;;;;;;7.15;79.04;102707.65;108148;1280;21995;-60
2024/01/22 09:00:57;;;;;;;35.90;19.00;;;;;;;7.19;79.02;102704.50;108161;1277;22451;-60
2024/01/22 09:03:25;;;;;;;34.30;18.40;;;;;;;7.24;78.75;102701.17;108123;1287;21989;-60
2024/01/22 09:05:51;;;;;;;38.70;21.00;;;;;;;7.26;78.53;102689.90;108166;1287;21989;-62
2024/01/22 09:08:17;;;;;;;44.10;19.70;;;;;;;7.29;78.58;102688.45;108106;1287;21994;-62
2024/01/22 09:10:43;;;;;;;40.30;20.80;;;;;;;7.39;79.19;102692.30;108158;1287;21997;-60
2024/01/22 09:13:09;;;;;;;33.30;17.90;;;;;;;7.48;79.27;102687.73;108130;1274;21987;-60
2024/01/22 09:15:35;;;;;;;33.90;18.00;;;;;;;7.54;79.38;102677.34;108080;1279;21993;-60
2024/01/22 09:18:01;;;;;;;39.70;21.20;;;;;;;7.61;79.43;102673.23;108109;1287;21990;-59
2024/01/22 09:20:27;;;;;;;36.10;20.20;;;;;;;7.68;79.78;102669.98;108129;1287;21990;-61
2024/01/22 09:22:53;;;;;;;45.70;23.70;;;;;;;7.75;79.80;102667.80;108152;1287;22001;-61
2024/01/22 09:25:20;;;;;;;42.50;21.60;;;;;;;7.81;79.84;102667.65;108137;1287;21990;-61
2024/01/22 09:27:48;;;;;;;42.70;24.00;;;;;;;7.87;79.95;102665.59;108185;1281;21994;-59
2024/01/22 09:30:14;;;;;;;41.70;20.80;;;;;;;7.92;79.93;102668.39;108192;1287;21990;-59
2024/01/22 09:32:40;;;;;;;146.40;78.10;;;;;;;7.97;79.78;102667.14;108111;1287;22008;-61
2024/01/22 09:35:06;;;;;;;110.70;56.50;;;;;;;8.05;80.88;102668.81;108110;1287;21998;-61
2024/01/22 09:37:33;;;;;;;53.60;30.20;;;;;;;8.17;81.74;102665.40;108170;1287;22013;-60
2024/01/22 09:39:58;;;;;;;43.30;22.70;;;;;;;8.25;81.15;102667.75;108258;1278;23053;-59
2024/01/22 09:42:27;;;;;;;60.60;33.80;;;;;;;8.28;79.94;102671.71;108253;1287;22030;-60
2024/01/22 09:44:53;;;;;;;53.50;31.10;;;;;;;8.29;79.64;102671.05;108097;1287;21996;-61
2024/01/22 09:47:19;;;;;;;47.40;30.60;;;;;;;8.32;79.83;102671.52;108235;1281;21994;-61
2024/01/22 09:49:48;;;;;;;42.40;26.50;;;;;;;8.37;79.94;102675.67;108174;1287;21981;-60
2024/01/22 09:52:17;;;;;;;42.40;26.10;;;;;;;8.40;79.80;102676.30;108147;1287;22049;-60
2024/01/22 09:54:43;;;;;;;44.80;25.80;;;;;;;8.42;79.63;102679.86;108181;1287;21992;-59
2024/01/22 09:57:13;;;;;;;45.60;24.80;;;;;;;8.44;79.61;102682.55;108303;1280;22000;-62
2024/01/22 09:59:38;;;;;;;45.30;25.30;;;;;;;8.46;79.24;102681.06;108148;1287;22100;-60
2024/01/22 10:02:04;;;;;;;39.30;22.00;;;;;;;8.47;79.31;102674.48;107895;1284;22116;-61
2024/01/22 10:04:30;;;;;;;39.40;21.50;;;;;;;8.49;78.98;102675.06;107878;1287;22014;-60
2024/01/22 10:06:56;;;;;;;39.40;24.00;;;;;;;8.50;78.93;102680.34;108235;1286;21989;-61
2024/01/22 10:09:22;;;;;;;42.70;24.90;;;;;;;8.53;79.13;102682.90;107933;1287;22004;-59
2024/01/22 10:11:48;;;;;;;34.30;22.00;;;;;;;8.56;79.33;102680.55;107992;1287;21984;-59
2024/01/22 10:14:14;;;;;;;39.00;24.10;;;;;;;8.60;79.48;102678.39;107918;1287;21990;-59
2024/01/22 10:16:39;;;;;;;38.70;22.50;;;;;;;8.63;79.63;102672.73;108194;1287;21990;-59
2024/01/22 10:19:07;;;;;;;37.40;22.00;;;;;;;8.67;79.48;102670.91;108095;1287;21993;-59
2024/01/22 10:21:33;;;;;;;39.60;21.00;;;;;;;8.70;79.19;102669.42;108161;1287;22000;-61
2024/01/22 10:24:00;;;;;;;38.10;20.30;;;;;;;8.72;79.02;102664.27;108141;1287;22001;-59
2024/01/22 10:26:26;;;;;;;35.40;19.50;;;;;;;8.77;79.29;102659.17;108184;1283;21999;-61
2024/01/22 10:28:52;;;;;;;40.90;20.30;;;;;;;8.86;79.70;102657.15;108122;1287;21991;-61
2024/01/22 10:31:18;;;;;;;36.60;20.70;;;;;;;8.98;80.53;102653.86;108196;1287;22010;-61
2024/01/22 10:33:45;;;;;;;38.70;23.00;;;;;;;9.18;81.82;102647.98;108234;1287;22034;-59
2024/01/22 10:36:15;;;;;;;38.30;23.00;;;;;;;9.46;83.42;102640.73;108261;1287;22108;-60
2024/01/22 10:38:41;;;;;;;;;;;;;;;9.79;84.68;102636.02;108191;1286;21974;-59
2024/01/22 10:41:25;;;;;;;35.80;19.10;;;;;;;10.08;84.39;102633.98;108132;1287;22159;-60
2024/01/22 10:43:50;;;;;;;33.80;18.20;;;;;;;10.23;80.88;102635.95;108043;1287;22036;-59
2024/01/22 10:46:17;;;;;;;32.40;19.10;;;;;;;10.19;78.16;102633.20;108175;1287;23744;-60
2024/01/22 10:48:43;;;;;;;37.00;21.20;;;;;;;10.02;75.11;102631.37;108113;1287;21993;-60
2024/01/22 10:51:12;;;;;;;36.80;19.50;;;;;;;9.85;74.96;102626.91;108103;1287;21996;-62
2024/01/22 10:53:39;;;;;;;36.50;20.90;;;;;;;9.70;73.19;102623.00;108103;1287;21998;-60
2024/01/22 10:56:17;;;;;;;35.60;20.10;;;;;;;9.54;73.03;102623.25;108145;1287;22093;-60
2024/01/22 10:58:44;;;;;;;36.90;20.80;;;;;;;9.46;72.68;102618.46;108275;1287;22012;-60
2024/01/22 11:01:11;;;;;;;35.40;20.40;;;;;;;9.37;73.02;102614.20;108178;1287;23663;-60